< < Back
Terminal Aerodrome Forecast


Current Version              Previous Versions:   1  2  3  4  5  6  7  8  9  

Terminal Aerodrome Forecast

215
FTUS42 KJAX 190900 AAB
TAFSSI
TAF AMD
KSSI 190921Z 1909/2006 VRB06KT P6SM VCSH SCT010 BKN035 OVC060
      TEMPO 1909/1912 2SM -SHRA BKN003
     FM191200 VRB06KT P6SM VCSH SCT010 BKN015
      TEMPO 1912/1916 BKN005
     FM191600 02012KT P6SM VCSH SCT010 BKN020
     FM200200 36013G20KT P6SM SCT008 BKN010=

Latest METAR

768
SAUS70 KWBC 191000 RRA
MTRSSI
METAR KSSI 190953Z AUTO 02004KT 1 3/4SM -RA BR OVC003 17/17 A2988 RMK
AO2 SLP119 P0000 T01720167 $


USA.gov is the U.S. government's official web portal to all federal, state and local government web resources and services.